Honey Creek, Wisconsin
Current Conditions -  °F | °C
As of 11:15 AM on Thursday 27 Nov 2014 (Local Time) from KBUU Reporting Station
Overcast Overcast  
Wind Chill:   Ceiling: 1400
Heat Index: 19°   Visibility: 10mi
Dew Point: 14°   Wind: 13mph
Humidity: 80%   Direction: 320°NW
Pressure: 30.34"   Gusts: NA
Location:  42.75°N, 88.31°W
Report Text: KBUU 271715Z AUTO 32011KT 10SM OVC014 M07/M10 A3034 RMK AO2 T10731102
Loading
Personal Weather Stations






























Interactive Weather Map New forecast layout! Learn more

10-Day Weather Forecast

Advertisements
Track Severe Weather on mobile